This is the latest recevied weather packets stored in our database for station/object AE7MK-13. If no packets are shown the sender has not sent any weather packets the latest 10 day(s).
| Time | Temp. | Humidity | Pressure | Rain* | Wind** | Luminosity | Snow |
|---|---|---|---|---|---|---|---|
| 1777761133 | 20.56° C | 28% | 1018.2 hPa | 0 mm | - | - | - |
| 1777760403 | 21.11° C | 29% | 1018.3 hPa | 0 mm | - | - | - |
| 1777755603 | 20° C | 31% | 1018.8 hPa | 0 mm | - | - | - |
| 1777751403 | 19.44° C | 33% | 1019.3 hPa | 0 mm | - | - | - |
| 1777750334 | 18.33° C | 32% | 1019.4 hPa | 0 mm | - | - | - |
| 1777749603 | 18.89° C | 33% | 1019.4 hPa | 0 mm | - | - | - |
| 1777743603 | 17.22° C | 38% | 1019 hPa | 0 mm | - | - | - |
| 1777741805 | 17.22° C | 37% | 1018.8 hPa | 0 mm | - | - | - |
| 1777735803 | 15.56° C | 41% | 1018.8 hPa | 0 mm | - | - | - |
| 1777729203 | 13.33° C | 50% | 1018.1 hPa | 0 mm | - | - | - |
| 1777728603 | 12.78° C | 50% | 1018.2 hPa | 0 mm | - | - | - |
| 1777722003 | 12.22° C | 53% | 1018.3 hPa | 0 mm | - | - | - |
| 1777721403 | 12.22° C | 52% | 1018.4 hPa | 0 mm | - | - | - |
| 1777719134 | 12.22° C | 55% | 1018.2 hPa | 0 mm | - | - | - |
| 1777715403 | 10° C | 62% | 1018.1 hPa | 0 mm | - | - | - |
| 1777710603 | 10° C | 58% | 1018.2 hPa | 0 mm | - | - | - |
| 1777708203 | 8.89° C | 62% | 1018.1 hPa | 0 mm | - | - | - |
| 1777699803 | 10° C | 56% | 1018.1 hPa | 0 mm | - | - | - |
| 1777697532 | 10.56° C | 55% | 1018.2 hPa | 0 mm | - | - | - |
| 1777696203 | 10° C | 56% | 1018.1 hPa | 0 mm | - | - | - |
| 1777695003 | 11.11° C | 55% | 1017.8 hPa | 0 mm | - | - | - |
| 1777694403 | 11.11° C | 53% | 1017.8 hPa | 0 mm | - | - | - |
| 1777687333 | 16.67° C | 39% | 1017.3 hPa | 0 mm | - | - | - |
| 1777685403 | 16.67° C | 39% | 1017.5 hPa | 0 mm | - | - | - |
| 1777683003 | 17.22° C | 36% | 1017.6 hPa | 0 mm | - | - | - |
* Rain latest hour (hover to see other rain measurements)
** Current wind speed in m/s (hover to see current wind gust speed)